createdAt,value
2019-04-23T00:00:19.819Z,12.47
2019-04-23T00:15:28.905Z,12.46
2019-04-23T00:45:55.035Z,12.21
2019-04-23T01:00:45.992Z,12.27
2019-04-23T01:15:53.983Z,12.14
2019-04-23T01:31:02.203Z,11.83
2019-04-23T01:46:07.926Z,11.61
2019-04-23T02:01:11.751Z,11.60
2019-04-23T02:16:19.174Z,11.44
2019-04-23T02:31:45.091Z,11.33
2019-04-23T02:46:24.517Z,11.21
2019-04-23T03:01:34.302Z,11.11
2019-04-23T03:16:58.401Z,10.99
2019-04-23T03:46:56.374Z,10.53
2019-04-23T04:02:20.576Z,10.34
2019-04-23T04:17:09.307Z,10.23
2019-04-23T04:32:24.653Z,10.42
2019-04-23T04:47:28.566Z,10.51
2019-04-23T05:02:32.735Z,10.85
2019-04-23T05:17:35.840Z,11.35
2019-04-23T05:32:26.511Z,11.76
2019-04-23T05:47:53.431Z,13.03
2019-04-23T06:02:46.102Z,14.29
2019-04-23T06:17:38.088Z,15.20
2019-04-23T06:32:42.952Z,15.75
2019-04-23T06:47:56.406Z,16.83
2019-04-23T07:03:00.884Z,17.08
2019-04-23T07:18:24.747Z,18.08
2019-04-23T07:33:29.790Z,18.14
2019-04-23T07:48:20.889Z,18.37
2019-04-23T08:03:40.324Z,18.66
2019-04-23T08:18:49.811Z,19.11
2019-04-23T08:33:58.848Z,20.02
2019-04-23T08:49:01.390Z,20.92
2019-04-23T09:04:00.916Z,21.32
2019-04-23T09:19:11.195Z,20.95
2019-04-23T09:34:26.226Z,21.38
2019-04-23T09:49:20.658Z,21.44
2019-04-23T10:04:08.652Z,22.60
2019-04-23T10:19:00.988Z,22.02
2019-04-23T10:34:02.079Z,21.82
2019-04-23T11:04:53.411Z,22.57
2019-04-23T11:19:53.852Z,22.82
2019-04-23T11:35:03.262Z,23.07
2019-04-23T11:50:13.940Z,23.97
2019-04-23T12:05:15.031Z,23.94
2019-04-23T12:20:13.138Z,23.65
2019-04-23T13:05:28.739Z,24.09
2019-04-23T13:20:28.027Z,23.48
2019-04-23T13:50:53.431Z,21.99
2019-04-23T14:05:45.680Z,22.79
2019-04-23T14:20:53.599Z,22.35
2019-04-23T14:35:56.328Z,20.58
2019-04-23T14:51:07.052Z,20.17
2019-04-23T15:51:30.088Z,17.66
2019-04-23T16:05:59.992Z,17.12
2019-04-23T16:21:35.856Z,16.70
2019-04-23T16:36:32.899Z,16.39
2019-04-23T16:51:31.918Z,16.28
2019-04-23T17:06:44.340Z,16.23
2019-04-23T17:21:56.888Z,16.20
2019-04-23T17:52:03.212Z,15.72
2019-04-23T18:07:12.120Z,15.64
2019-04-23T18:22:19.109Z,15.62
2019-04-23T18:37:22.604Z,15.54
2019-04-23T19:07:45.495Z,15.75
2019-04-23T19:22:38.028Z,16.07
2019-04-23T19:37:49.622Z,16.39
2019-04-23T19:53:07.375Z,16.42
2019-04-23T20:07:55.417Z,16.41
2019-04-23T20:22:52.232Z,16.45
2019-04-23T20:53:00.045Z,16.73
2019-04-23T21:08:14.149Z,16.64
2019-04-23T21:23:37.709Z,16.35
2019-04-23T21:38:31.742Z,16.25
2019-04-23T21:53:25.957Z,16.02
2019-04-23T22:08:36.892Z,15.90
2019-04-23T22:23:50.624Z,15.72
2019-04-23T22:38:41.661Z,15.50
2019-04-23T22:53:50.793Z,15.41
2019-04-23T23:09:01.086Z,15.27
2019-04-23T23:24:02.927Z,15.14
2019-04-23T23:39:05.550Z,14.94
2019-04-23T23:54:08.760Z,14.94
